createdAt,value
2019-02-15T00:02:18.195Z,99.90
2019-02-15T00:04:47.650Z,99.90
2019-02-15T00:07:17.809Z,99.90
2019-02-15T00:09:47.286Z,99.90
2019-02-15T00:12:16.695Z,99.90
2019-02-15T00:14:49.215Z,99.90
2019-02-15T00:17:55.322Z,99.90
2019-02-15T00:20:32.338Z,99.90
2019-02-15T00:23:01.717Z,99.90
2019-02-15T00:25:30.847Z,99.90
2019-02-15T00:27:59.664Z,99.90
2019-02-15T00:30:28.575Z,99.90
2019-02-15T00:32:57.659Z,99.90
2019-02-15T00:35:26.874Z,99.90
2019-02-15T00:37:55.680Z,99.90
2019-02-15T00:40:24.473Z,99.90
2019-02-15T00:42:53.771Z,99.90
2019-02-15T00:45:26.387Z,99.90
2019-02-15T00:47:59.818Z,99.90
2019-02-15T00:50:47.708Z,99.90
2019-02-15T00:53:39.755Z,99.90
2019-02-15T00:56:19.737Z,99.90
2019-02-15T00:58:58.252Z,99.90
2019-02-15T01:01:43.838Z,99.90
2019-02-15T01:04:19.612Z,99.90
2019-02-15T01:07:03.649Z,99.90
2019-02-15T01:09:50.388Z,99.90
2019-02-15T01:12:27.560Z,99.90
2019-02-15T01:14:56.874Z,99.90
2019-02-15T01:17:26.053Z,99.90
2019-02-15T01:19:54.916Z,99.90
2019-02-15T01:22:24.374Z,99.90
2019-02-15T01:24:53.444Z,99.90
2019-02-15T01:27:28.927Z,99.90
2019-02-15T01:30:07.639Z,99.90
2019-02-15T01:32:55.682Z,99.90
2019-02-15T01:35:43.894Z,99.90
2019-02-15T01:38:32.134Z,99.90
2019-02-15T01:41:20.787Z,99.90
2019-02-15T01:44:04.326Z,99.90
2019-02-15T01:46:46.424Z,99.90
2019-02-15T01:49:15.219Z,99.90
2019-02-15T01:51:44.514Z,99.90
2019-02-15T01:54:13.312Z,99.90
2019-02-15T01:56:42.147Z,99.90
2019-02-15T01:59:10.961Z,99.90
2019-02-15T02:01:40.490Z,99.90
2019-02-15T02:04:09.352Z,99.90
2019-02-15T02:06:38.383Z,99.90
2019-02-15T02:09:07.876Z,99.90
2019-02-15T02:11:36.827Z,99.90
2019-02-15T02:14:05.974Z,99.90
2019-02-15T02:16:34.859Z,99.90
2019-02-15T02:19:04.267Z,99.90
2019-02-15T02:21:33.819Z,99.90
2019-02-15T02:24:02.963Z,99.90
2019-02-15T02:26:32.167Z,99.90
2019-02-15T02:29:01.115Z,99.90
2019-02-15T02:31:30.256Z,99.90
2019-02-15T02:33:59.062Z,99.90
2019-02-15T02:36:47.966Z,99.90
2019-02-15T02:39:16.826Z,99.90
2019-02-15T02:41:45.714Z,99.90
2019-02-15T02:44:14.583Z,99.90
2019-02-15T02:46:43.699Z,99.90
2019-02-15T02:49:12.505Z,99.90
2019-02-15T02:51:41.637Z,99.90
2019-02-15T02:54:10.722Z,99.90
2019-02-15T02:56:39.904Z,99.90
2019-02-15T02:59:08.781Z,99.90
2019-02-15T03:01:38.195Z,99.90
2019-02-15T03:04:07.773Z,99.90
2019-02-15T03:06:36.893Z,99.90
2019-02-15T03:09:09.376Z,99.90
2019-02-15T03:11:39.084Z,99.90
2019-02-15T03:14:11.633Z,99.90
2019-02-15T03:16:39.438Z,99.90
2019-02-15T03:19:08.310Z,99.90
2019-02-15T03:21:37.091Z,99.90
2019-02-15T03:24:06.307Z,99.90
2019-02-15T03:26:35.704Z,99.90
2019-02-15T03:29:04.948Z,99.90
2019-02-15T03:31:34.149Z,99.90
2019-02-15T03:34:02.949Z,99.90
2019-02-15T03:36:52.466Z,99.90
2019-02-15T03:39:46.363Z,99.90
2019-02-15T03:42:15.617Z,99.90
2019-02-15T03:44:44.571Z,99.90
2019-02-15T03:47:15.456Z,99.90
2019-02-15T03:49:44.271Z,99.90
2019-02-15T03:52:13.082Z,99.90
2019-02-15T03:54:42.368Z,99.90
2019-02-15T03:57:11.240Z,99.90
2019-02-15T03:59:40.450Z,99.90
2019-02-15T04:02:09.743Z,99.90
2019-02-15T04:04:38.658Z,99.90
2019-02-15T04:07:07.726Z,99.90
2019-02-15T04:09:36.565Z,99.90
2019-02-15T04:12:05.419Z,99.90
2019-02-15T04:14:34.265Z,99.90
2019-02-15T04:17:03.395Z,99.90
2019-02-15T04:19:32.492Z,99.90
2019-02-15T04:22:01.950Z,99.90
2019-02-15T04:24:31.090Z,99.90
2019-02-15T04:26:59.892Z,99.90
2019-02-15T04:29:29.607Z,99.90
2019-02-15T04:31:58.408Z,99.90
2019-02-15T04:34:27.511Z,99.90
2019-02-15T04:36:56.362Z,99.90
2019-02-15T04:39:25.410Z,99.90
2019-02-15T04:41:54.224Z,99.90
2019-02-15T04:44:23.658Z,99.90
2019-02-15T04:46:52.830Z,99.90
2019-02-15T04:49:21.875Z,99.90
2019-02-15T04:51:50.951Z,99.90
2019-02-15T04:54:20.072Z,99.90
2019-02-15T04:56:49.295Z,99.90
2019-02-15T04:59:18.539Z,99.90
2019-02-15T05:01:47.633Z,99.90
2019-02-15T05:04:16.506Z,99.90
2019-02-15T05:06:45.924Z,99.90
2019-02-15T05:09:15.026Z,99.90
2019-02-15T05:11:44.445Z,99.90
2019-02-15T05:14:13.827Z,99.90
2019-02-15T05:16:43.147Z,99.90
2019-02-15T05:19:12.332Z,99.90
2019-02-15T05:21:41.542Z,99.90
2019-02-15T05:24:10.477Z,99.90
2019-02-15T05:26:39.526Z,99.90
2019-02-15T05:29:08.332Z,99.90
2019-02-15T05:31:37.785Z,99.90
2019-02-15T05:34:07.210Z,99.90
2019-02-15T05:36:36.011Z,99.90
2019-02-15T05:39:07.211Z,99.90
2019-02-15T05:41:36.351Z,99.90
2019-02-15T05:44:05.250Z,99.90
2019-02-15T05:46:34.322Z,99.90
2019-02-15T05:49:03.807Z,99.90
2019-02-15T05:51:32.700Z,99.90
2019-02-15T05:54:01.567Z,99.90
2019-02-15T05:56:31.123Z,99.90
2019-02-15T05:59:00.258Z,99.90
2019-02-15T06:01:30.191Z,99.90
2019-02-15T06:03:59.007Z,99.90
2019-02-15T06:06:27.866Z,99.90
2019-02-15T06:08:57.016Z,99.90
2019-02-15T06:11:25.945Z,99.90
2019-02-15T06:13:54.810Z,99.90
2019-02-15T06:16:23.617Z,99.90
2019-02-15T06:18:52.758Z,99.90
2019-02-15T06:21:21.930Z,99.90
2019-02-15T06:23:51.074Z,99.90
2019-02-15T06:26:19.987Z,99.90
2019-02-15T06:28:49.068Z,99.90
2019-02-15T06:31:18.143Z,99.90
2019-02-15T06:33:47.183Z,99.90
2019-02-15T06:36:16.374Z,99.90
2019-02-15T06:38:45.545Z,99.90
2019-02-15T06:41:14.964Z,99.90
2019-02-15T06:43:44.157Z,99.90
2019-02-15T06:46:13.244Z,99.90
2019-02-15T06:48:42.046Z,99.90
2019-02-15T06:51:11.132Z,99.90
2019-02-15T06:53:39.945Z,99.90
2019-02-15T06:56:09.395Z,99.90
2019-02-15T06:58:45.858Z,99.90
2019-02-15T07:01:26.654Z,99.90
2019-02-15T07:04:12.867Z,99.90
2019-02-15T07:06:42.076Z,99.90
2019-02-15T07:09:11.462Z,99.90
2019-02-15T07:11:40.267Z,99.90
2019-02-15T07:14:09.062Z,99.90
2019-02-15T07:16:38.140Z,99.90
2019-02-15T07:19:07.335Z,99.90
2019-02-15T07:21:36.796Z,99.90
2019-02-15T07:24:05.606Z,99.90
2019-02-15T07:26:34.643Z,99.90
2019-02-15T07:29:03.719Z,99.90
2019-02-15T07:31:32.810Z,99.90
2019-02-15T07:34:01.674Z,99.90
2019-02-15T07:36:30.827Z,99.90
2019-02-15T07:38:59.635Z,99.90
2019-02-15T07:41:29.098Z,99.90
2019-02-15T07:43:58.226Z,99.90
2019-02-15T07:46:27.026Z,99.90
2019-02-15T07:48:56.054Z,99.90
2019-02-15T07:51:24.842Z,99.90
2019-02-15T07:53:53.975Z,99.90
2019-02-15T07:56:23.037Z,99.90
2019-02-15T07:58:52.067Z,99.90
2019-02-15T08:01:20.858Z,99.90
2019-02-15T08:03:50.041Z,99.90
2019-02-15T08:06:18.908Z,99.90
2019-02-15T08:08:47.989Z,99.90
2019-02-15T08:11:16.782Z,99.90
2019-02-15T08:13:45.919Z,99.90
2019-02-15T08:16:14.711Z,99.90
2019-02-15T08:18:43.604Z,99.90
2019-02-15T08:21:13.308Z,99.90
2019-02-15T08:23:42.908Z,99.90
2019-02-15T08:26:12.054Z,99.90
2019-02-15T08:28:41.624Z,99.90
2019-02-15T08:31:10.433Z,99.90
2019-02-15T08:33:39.222Z,99.90
2019-02-15T08:36:08.259Z,99.90
2019-02-15T08:38:37.591Z,99.90
2019-02-15T08:41:06.727Z,99.90
2019-02-15T08:43:36.154Z,99.90
2019-02-15T08:46:04.967Z,99.90
2019-02-15T08:48:33.772Z,99.90
2019-02-15T08:51:02.894Z,99.90
2019-02-15T08:53:32.107Z,99.90
2019-02-15T08:56:00.881Z,99.90
2019-02-15T08:58:29.757Z,99.90
2019-02-15T09:00:58.903Z,99.90
2019-02-15T09:03:27.995Z,99.90
2019-02-15T09:05:57.094Z,99.90
2019-02-15T09:08:26.171Z,99.90
2019-02-15T09:10:54.967Z,99.90
2019-02-15T09:13:23.911Z,99.90
2019-02-15T09:15:52.959Z,99.90
2019-02-15T09:18:21.882Z,99.90
2019-02-15T09:20:50.916Z,99.90
2019-02-15T09:23:19.774Z,99.90
2019-02-15T09:25:48.938Z,99.90
2019-02-15T09:28:31.874Z,99.90
2019-02-15T09:31:00.658Z,99.90
2019-02-15T09:33:29.446Z,99.90
2019-02-15T09:35:58.539Z,99.90
2019-02-15T09:38:27.582Z,99.90
2019-02-15T09:40:56.627Z,99.90
2019-02-15T09:43:25.994Z,99.90
2019-02-15T09:45:54.800Z,99.90
2019-02-15T09:48:23.917Z,99.90
2019-02-15T09:50:53.003Z,99.90
2019-02-15T09:53:21.777Z,99.90
2019-02-15T09:55:51.203Z,99.90
2019-02-15T09:58:20.503Z,99.90
2019-02-15T10:00:49.366Z,99.90
2019-02-15T10:03:18.154Z,99.90
2019-02-15T10:05:47.586Z,99.90
2019-02-15T10:08:16.375Z,99.90
2019-02-15T10:10:45.180Z,99.90
2019-02-15T10:13:14.676Z,99.90
2019-02-15T10:15:43.480Z,99.90
2019-02-15T10:18:12.358Z,99.90
2019-02-15T10:20:41.836Z,99.90
2019-02-15T10:23:11.230Z,99.90
2019-02-15T10:25:40.167Z,99.90
2019-02-15T10:28:09.031Z,99.90
2019-02-15T10:30:38.135Z,99.90
2019-02-15T10:33:07.240Z,99.90
2019-02-15T10:35:36.816Z,99.90
2019-02-15T10:38:06.030Z,99.90
2019-02-15T10:40:34.827Z,99.90
2019-02-15T10:43:04.028Z,99.90
2019-02-15T10:45:32.806Z,99.90
2019-02-15T10:48:01.598Z,99.90
2019-02-15T10:50:30.835Z,99.90
2019-02-15T10:53:00.195Z,99.90
2019-02-15T10:55:29.293Z,99.90
2019-02-15T10:57:58.202Z,99.90
2019-02-15T11:00:27.305Z,99.90
2019-02-15T11:02:56.287Z,99.90
2019-02-15T11:05:25.406Z,99.90
2019-02-15T11:07:54.978Z,99.90
2019-02-15T11:10:24.052Z,99.90
2019-02-15T11:12:53.106Z,99.90
2019-02-15T11:15:22.166Z,99.90
2019-02-15T11:17:51.673Z,99.90
2019-02-15T11:20:20.896Z,99.90
2019-02-15T11:22:49.972Z,99.90
2019-02-15T11:25:18.766Z,99.90
2019-02-15T11:27:47.563Z,99.90
2019-02-15T11:30:17.515Z,99.90
2019-02-15T11:32:46.374Z,99.90
2019-02-15T11:35:15.746Z,99.90
2019-02-15T11:37:44.604Z,99.90
2019-02-15T11:40:14.033Z,99.90
2019-02-15T11:42:43.012Z,99.90
2019-02-15T11:45:12.252Z,99.90
2019-02-15T11:47:41.135Z,99.90
2019-02-15T11:50:11.272Z,99.90
2019-02-15T11:52:40.759Z,99.90
2019-02-15T11:55:09.714Z,99.90
2019-02-15T11:57:38.762Z,99.90
2019-02-15T12:00:14.141Z,99.90
2019-02-15T12:02:41.478Z,99.90
2019-02-15T12:05:10.430Z,99.90
2019-02-15T12:07:39.247Z,99.90
2019-02-15T12:10:08.723Z,99.90
2019-02-15T12:12:37.831Z,99.90
2019-02-15T12:15:06.965Z,99.90
2019-02-15T12:17:36.011Z,99.90
2019-02-15T12:20:05.372Z,99.90
2019-02-15T12:22:34.241Z,99.90
2019-02-15T12:25:03.511Z,99.90
2019-02-15T12:27:32.639Z,99.90
2019-02-15T12:30:01.698Z,99.90
2019-02-15T12:32:30.790Z,99.90
2019-02-15T12:34:59.808Z,99.90
2019-02-15T12:37:28.843Z,99.90
2019-02-15T12:39:57.883Z,99.90
2019-02-15T12:42:26.671Z,99.90
2019-02-15T12:44:55.768Z,99.90
2019-02-15T12:47:24.866Z,99.90
2019-02-15T12:49:55.668Z,99.90
2019-02-15T12:52:24.793Z,99.90
2019-02-15T12:54:53.890Z,99.90
2019-02-15T12:57:22.986Z,99.90
2019-02-15T12:59:52.008Z,99.90
2019-02-15T13:02:20.806Z,97.80
2019-02-15T13:04:49.586Z,99.40
2019-02-15T13:07:18.750Z,99.90
2019-02-15T13:09:47.523Z,99.90
2019-02-15T13:12:16.323Z,91.40
2019-02-15T13:14:45.402Z,64.90
2019-02-15T13:17:14.256Z,59.50
2019-02-15T13:19:43.743Z,57.90
2019-02-15T13:22:12.551Z,57.50
2019-02-15T13:24:43.232Z,56.40
2019-02-15T13:27:12.167Z,55.50
2019-02-15T13:29:41.458Z,55.40
2019-02-15T13:32:10.579Z,55.20
2019-02-15T13:34:39.358Z,54.40
2019-02-15T13:37:08.250Z,54.80
2019-02-15T13:39:37.630Z,54.80
2019-02-15T13:42:06.811Z,54.50
2019-02-15T13:44:35.619Z,53.70
2019-02-15T13:47:04.902Z,55.60
2019-02-15T13:49:33.999Z,56.10
2019-02-15T13:52:03.091Z,56.60
2019-02-15T13:54:32.739Z,55.40
2019-02-15T13:57:01.805Z,54.40
2019-02-15T13:59:31.203Z,55.40
2019-02-15T14:02:00.362Z,55.20
2019-02-15T14:04:29.971Z,54.90
2019-02-15T14:06:59.126Z,54.00
2019-02-15T14:09:29.167Z,55.10
2019-02-15T14:11:58.039Z,52.40
2019-02-15T14:14:26.834Z,54.00
2019-02-15T14:16:55.894Z,54.00
2019-02-15T14:19:24.697Z,53.70
2019-02-15T14:21:53.491Z,53.50
2019-02-15T14:24:22.566Z,52.40
2019-02-15T14:26:51.359Z,51.60
2019-02-15T14:29:20.163Z,52.50
2019-02-15T14:31:48.951Z,52.30
2019-02-15T14:34:18.031Z,52.10
2019-02-15T14:36:47.236Z,51.20
2019-02-15T14:39:16.132Z,53.00
2019-02-15T14:41:45.358Z,51.30
2019-02-15T14:44:14.208Z,51.80
2019-02-15T14:46:43.059Z,51.50
2019-02-15T14:49:12.072Z,51.10
2019-02-15T14:51:40.873Z,51.20
2019-02-15T14:54:10.374Z,51.30
2019-02-15T14:56:39.425Z,51.70
2019-02-15T14:59:08.728Z,51.10
2019-02-15T15:01:37.920Z,51.40
2019-02-15T15:04:07.011Z,51.80
2019-02-15T15:06:35.804Z,52.70
2019-02-15T15:09:06.454Z,52.30
2019-02-15T15:11:35.844Z,51.40
2019-02-15T15:14:05.039Z,51.20
2019-02-15T15:16:33.947Z,51.90
2019-02-15T15:19:02.766Z,51.70
2019-02-15T15:21:32.518Z,51.20
2019-02-15T15:24:01.335Z,51.40
2019-02-15T15:26:30.410Z,52.10
2019-02-15T15:28:59.607Z,52.30
2019-02-15T15:31:28.638Z,51.80
2019-02-15T15:33:57.675Z,52.50
2019-02-15T15:36:26.489Z,51.50
2019-02-15T15:38:55.278Z,51.30
2019-02-15T15:41:24.551Z,52.20
2019-02-15T15:43:53.358Z,52.80
2019-02-15T15:46:22.235Z,53.70
2019-02-15T15:48:51.038Z,54.40
2019-02-15T15:51:20.447Z,54.70
2019-02-15T15:53:49.255Z,55.80
2019-02-15T15:56:18.458Z,55.70
2019-02-15T15:58:47.848Z,55.80
2019-02-15T16:01:17.054Z,56.80
2019-02-15T16:03:46.126Z,57.20
2019-02-15T16:06:24.017Z,57.70
2019-02-15T16:08:46.410Z,58.20
2019-02-15T16:11:15.447Z,59.30
2019-02-15T16:13:44.489Z,59.60
2019-02-15T16:16:13.285Z,60.80
2019-02-15T16:18:42.075Z,60.80
2019-02-15T16:21:10.967Z,62.50
2019-02-15T16:23:40.470Z,65.30
2019-02-15T16:26:09.650Z,66.70
2019-02-15T16:28:38.459Z,69.50
2019-02-15T16:31:07.265Z,70.90
2019-02-15T16:33:36.820Z,73.00
2019-02-15T16:36:05.655Z,73.90
2019-02-15T16:38:34.439Z,74.80
2019-02-15T16:41:03.614Z,75.80
2019-02-15T16:43:32.422Z,75.00
2019-02-15T16:46:01.797Z,78.80
2019-02-15T16:48:30.592Z,81.00
2019-02-15T16:50:59.749Z,84.00
2019-02-15T16:53:28.819Z,82.60
2019-02-15T16:55:58.008Z,88.50
2019-02-15T16:58:26.799Z,90.60
2019-02-15T17:00:55.866Z,93.60
2019-02-15T17:03:25.279Z,90.40
2019-02-15T17:05:54.151Z,93.00
2019-02-15T17:08:23.199Z,93.80
2019-02-15T17:10:52.148Z,92.10
2019-02-15T17:13:21.341Z,95.50
2019-02-15T17:15:50.491Z,95.30
2019-02-15T17:18:19.631Z,96.50
2019-02-15T17:20:48.439Z,99.20
2019-02-15T17:23:17.299Z,98.80
2019-02-15T17:25:46.398Z,98.00
2019-02-15T17:28:15.502Z,99.90
2019-02-15T17:30:44.608Z,99.90
2019-02-15T17:33:13.797Z,99.90
2019-02-15T17:35:42.602Z,99.90
2019-02-15T17:38:11.599Z,99.90
2019-02-15T17:40:40.398Z,99.90
2019-02-15T17:43:09.183Z,99.90
2019-02-15T17:45:38.382Z,99.90
2019-02-15T17:48:07.549Z,99.90
2019-02-15T17:50:36.623Z,99.90
2019-02-15T17:53:05.427Z,99.90
2019-02-15T17:55:34.423Z,99.90
2019-02-15T17:58:03.812Z,99.90
2019-02-15T18:00:32.695Z,99.90
2019-02-15T18:03:01.929Z,99.90
2019-02-15T18:05:31.431Z,99.90
2019-02-15T18:08:00.536Z,99.90
2019-02-15T18:10:29.652Z,99.90
2019-02-15T18:12:58.463Z,99.90
2019-02-15T18:15:27.607Z,99.90
2019-02-15T18:17:56.725Z,99.90
2019-02-15T18:20:25.902Z,99.90
2019-02-15T18:22:54.997Z,99.90
2019-02-15T18:25:23.786Z,99.90
2019-02-15T18:27:53.288Z,99.90
2019-02-15T18:30:22.185Z,99.90
2019-02-15T18:32:51.361Z,99.90
2019-02-15T18:35:20.591Z,99.90
2019-02-15T18:37:49.419Z,99.90
2019-02-15T18:40:18.673Z,99.90
2019-02-15T18:42:47.476Z,99.90
2019-02-15T18:45:16.290Z,99.90
2019-02-15T18:47:45.366Z,99.90
2019-02-15T18:50:14.864Z,99.90
2019-02-15T18:52:43.662Z,99.90
2019-02-15T18:55:13.246Z,99.90
2019-02-15T18:57:42.752Z,99.90
2019-02-15T19:00:14.106Z,99.90
2019-02-15T19:02:43.229Z,99.90
2019-02-15T19:05:12.795Z,99.90
2019-02-15T19:07:42.213Z,99.90
2019-02-15T19:10:13.147Z,99.90
2019-02-15T19:12:42.202Z,99.90
2019-02-15T19:15:12.188Z,99.90
2019-02-15T19:17:41.573Z,99.90
2019-02-15T19:20:11.135Z,99.90
2019-02-15T19:22:39.963Z,99.90
2019-02-15T19:25:10.261Z,99.90
2019-02-15T19:27:39.210Z,99.90
2019-02-15T19:30:10.927Z,99.90
2019-02-15T19:32:40.017Z,99.90
2019-02-15T19:35:09.475Z,99.90
2019-02-15T19:37:38.271Z,99.90
2019-02-15T19:40:08.727Z,99.90
2019-02-15T19:42:38.150Z,99.90
2019-02-15T19:45:08.839Z,99.90
2019-02-15T19:47:38.566Z,99.90
2019-02-15T19:50:09.997Z,99.90
2019-02-15T19:52:39.129Z,99.90
2019-02-15T19:55:08.904Z,99.90
2019-02-15T19:57:37.772Z,99.90
2019-02-15T20:00:09.759Z,99.90
2019-02-15T20:02:39.114Z,99.90
2019-02-15T20:05:08.240Z,99.90
2019-02-15T20:07:37.127Z,99.90
2019-02-15T20:10:08.403Z,99.90
2019-02-15T20:12:37.470Z,99.90
2019-02-15T20:15:07.759Z,99.90
2019-02-15T20:17:36.834Z,99.90
2019-02-15T20:20:07.208Z,99.90
2019-02-15T20:22:36.315Z,99.90
2019-02-15T20:25:05.650Z,99.90
2019-02-15T20:27:34.919Z,99.90
2019-02-15T20:30:03.995Z,99.90
2019-02-15T20:32:33.081Z,99.90
2019-02-15T20:35:02.439Z,99.90
2019-02-15T20:37:31.218Z,99.90
2019-02-15T20:40:00.462Z,99.90
2019-02-15T20:42:29.362Z,99.90
2019-02-15T20:44:58.389Z,99.90
2019-02-15T20:47:27.355Z,99.90
2019-02-15T20:49:58.270Z,99.90
2019-02-15T20:52:27.458Z,99.90
2019-02-15T20:54:56.560Z,99.90
2019-02-15T20:57:25.443Z,99.90
2019-02-15T20:59:54.455Z,99.90
2019-02-15T21:02:23.539Z,99.90
2019-02-15T21:04:52.654Z,99.90
2019-02-15T21:07:21.735Z,99.90
2019-02-15T21:09:50.932Z,99.90
2019-02-15T21:12:19.941Z,99.90
2019-02-15T21:14:49.631Z,99.90
2019-02-15T21:17:18.752Z,99.90
2019-02-15T21:19:48.062Z,99.90
2019-02-15T21:22:16.895Z,99.90
2019-02-15T21:24:46.242Z,99.90
2019-02-15T21:27:15.042Z,99.90
2019-02-15T21:29:44.106Z,99.90
2019-02-15T21:32:13.515Z,99.90
2019-02-15T21:34:42.611Z,99.90
2019-02-15T21:37:11.962Z,99.90
2019-02-15T21:39:41.543Z,99.90
2019-02-15T21:42:10.623Z,99.90
2019-02-15T21:44:40.608Z,99.90
2019-02-15T21:47:10.140Z,99.90
2019-02-15T21:49:39.403Z,99.90
2019-02-15T21:52:08.842Z,99.90
2019-02-15T21:54:38.103Z,99.90
2019-02-15T21:57:06.962Z,99.90
2019-02-15T21:59:35.770Z,99.90
2019-02-15T22:02:04.562Z,99.90
2019-02-15T22:04:33.611Z,99.90
2019-02-15T22:07:02.529Z,99.90
2019-02-15T22:09:31.316Z,99.90
2019-02-15T22:12:00.115Z,99.90
2019-02-15T22:14:29.587Z,99.90
2019-02-15T22:16:58.395Z,99.90
2019-02-15T22:19:27.467Z,99.90
2019-02-15T22:21:56.279Z,99.90
2019-02-15T22:24:25.098Z,99.90
2019-02-15T22:26:53.918Z,99.90
2019-02-15T22:29:23.026Z,99.90
2019-02-15T22:31:51.886Z,99.90
2019-02-15T22:34:20.675Z,99.90
2019-02-15T22:36:49.804Z,99.90
2019-02-15T22:39:18.883Z,99.90
2019-02-15T22:41:48.059Z,99.90
2019-02-15T22:44:17.283Z,99.90
2019-02-15T22:46:46.386Z,99.90
2019-02-15T22:49:15.488Z,99.90
2019-02-15T22:51:44.281Z,99.90
2019-02-15T22:54:13.071Z,99.90
2019-02-15T22:56:41.876Z,99.90
2019-02-15T22:59:11.699Z,99.90
2019-02-15T23:01:41.331Z,99.90
2019-02-15T23:04:10.170Z,99.90
2019-02-15T23:06:39.475Z,99.90
2019-02-15T23:09:19.969Z,99.90
2019-02-15T23:11:49.093Z,99.90
2019-02-15T23:14:17.888Z,99.90
2019-02-15T23:16:46.702Z,99.90
2019-02-15T23:19:15.794Z,99.90
2019-02-15T23:21:44.891Z,99.90
2019-02-15T23:24:13.982Z,99.90
2019-02-15T23:26:42.864Z,99.90
2019-02-15T23:29:11.958Z,99.90
2019-02-15T23:31:40.814Z,99.90
2019-02-15T23:34:10.112Z,99.90
2019-02-15T23:36:39.404Z,99.90
2019-02-15T23:39:08.562Z,99.90
2019-02-15T23:41:37.587Z,99.90
2019-02-15T23:44:06.419Z,99.90
2019-02-15T23:46:35.202Z,99.90
2019-02-15T23:49:04.331Z,99.90
2019-02-15T23:51:33.506Z,99.90
2019-02-15T23:54:02.647Z,99.90
2019-02-15T23:56:32.130Z,99.90
2019-02-15T23:59:01.740Z,99.90
